sensor_id;sensor_type;location;lat;lon;timestamp;pressure;altitude;pressure_sealevel;temperature;humidity
43147;BME280;28752;48.266;7.402;2023-02-03T00:02:23;100980.28;;;5.98;96.04
43147;BME280;28752;48.266;7.402;2023-02-03T00:04:48;100979.31;;;5.99;95.28
43147;BME280;28752;48.266;7.402;2023-02-03T00:07:14;100966.28;;;5.96;95.44
43147;BME280;28752;48.266;7.402;2023-02-03T00:09:39;100978.25;;;6.03;94.49
43147;BME280;28752;48.266;7.402;2023-02-03T00:12:05;100976.13;;;5.93;95.46
43147;BME280;28752;48.266;7.402;2023-02-03T00:14:31;100975.97;;;5.96;96.07
43147;BME280;28752;48.266;7.402;2023-02-03T00:16:58;100980.88;;;6.03;96.36
43147;BME280;28752;48.266;7.402;2023-02-03T00:19:23;100979.69;;;5.92;96.47
43147;BME280;28752;48.266;7.402;2023-02-03T00:21:48;100981.63;;;6.05;96.22
43147;BME280;28752;48.266;7.402;2023-02-03T00:24:14;100968.56;;;6.04;95.29
43147;BME280;28752;48.266;7.402;2023-02-03T00:26:41;100973.59;;;6.09;95.66
43147;BME280;28752;48.266;7.402;2023-02-03T00:29:06;100944.41;;;5.96;94.88
43147;BME280;28752;48.266;7.402;2023-02-03T00:31:33;100975.53;;;6.05;94.74
43147;BME280;28752;48.266;7.402;2023-02-03T00:33:58;100974.22;;;6.14;95.70
43147;BME280;28752;48.266;7.402;2023-02-03T00:36:24;100962.38;;;6.05;95.16
43147;BME280;28752;48.266;7.402;2023-02-03T00:38:50;100963.63;;;5.98;96.54
43147;BME280;28752;48.266;7.402;2023-02-03T00:41:16;100975.38;;;6.08;96.47
43147;BME280;28752;48.266;7.402;2023-02-03T00:43:42;100975.28;;;6.10;96.64
43147;BME280;28752;48.266;7.402;2023-02-03T00:46:07;100974.84;;;6.01;96.75
43147;BME280;28752;48.266;7.402;2023-02-03T00:48:33;100975.06;;;6.14;95.56
43147;BME280;28752;48.266;7.402;2023-02-03T00:50:58;100975.72;;;6.18;94.77
43147;BME280;28752;48.266;7.402;2023-02-03T00:53:23;100983.09;;;6.11;95.71
43147;BME280;28752;48.266;7.402;2023-02-03T00:55:49;100980.31;;;6.14;95.49
43147;BME280;28752;48.266;7.402;2023-02-03T00:58:14;100978.69;;;6.12;94.92
43147;BME280;28752;48.266;7.402;2023-02-03T01:00:40;100988.03;;;6.17;95.33
43147;BME280;28752;48.266;7.402;2023-02-03T01:03:05;101000.44;;;6.15;95.78
43147;BME280;28752;48.266;7.402;2023-02-03T01:05:30;100989.69;;;6.20;95.44
43147;BME280;28752;48.266;7.402;2023-02-03T01:07:56;100993.00;;;6.23;95.63
43147;BME280;28752;48.266;7.402;2023-02-03T01:10:21;100996.94;;;6.15;95.96
43147;BME280;28752;48.266;7.402;2023-02-03T01:12:46;100982.03;;;6.15;95.97
43147;BME280;28752;48.266;7.402;2023-02-03T01:15:12;100963.06;;;6.09;95.91
43147;BME280;28752;48.266;7.402;2023-02-03T01:17:37;100982.72;;;6.19;95.93
43147;BME280;28752;48.266;7.402;2023-02-03T01:20:03;100982.47;;;6.23;95.51
43147;BME280;28752;48.266;7.402;2023-02-03T01:22:29;100986.25;;;6.18;95.83
43147;BME280;28752;48.266;7.402;2023-02-03T01:24:55;100993.94;;;6.22;95.15
43147;BME280;28752;48.266;7.402;2023-02-03T01:27:20;100988.97;;;6.16;95.15
43147;BME280;28752;48.266;7.402;2023-02-03T01:29:45;100983.09;;;6.11;96.15
43147;BME280;28752;48.266;7.402;2023-02-03T01:32:11;100994.53;;;6.10;96.67
43147;BME280;28752;48.266;7.402;2023-02-03T01:34:36;100993.03;;;6.06;96.76
43147;BME280;28752;48.266;7.402;2023-02-03T01:37:02;100991.84;;;6.12;96.63
43147;BME280;28752;48.266;7.402;2023-02-03T01:39:27;100996.84;;;6.16;96.49
43147;BME280;28752;48.266;7.402;2023-02-03T01:41:54;100995.69;;;6.22;95.82
43147;BME280;28752;48.266;7.402;2023-02-03T01:44:46;100968.09;;;6.13;96.43
43147;BME280;28752;48.266;7.402;2023-02-03T01:47:31;100963.38;;;6.20;96.40
43147;BME280;28752;48.266;7.402;2023-02-03T01:52:44;100966.84;;;6.20;96.42
43147;BME280;28752;48.266;7.402;2023-02-03T01:55:15;100952.16;;;6.16;96.94
43147;BME280;28752;48.266;7.402;2023-02-03T01:57:52;100935.44;;;6.17;97.27
43147;BME280;28752;48.266;7.402;2023-02-03T02:00:20;100944.34;;;6.15;96.30
43147;BME280;28752;48.266;7.402;2023-02-03T02:02:47;100946.88;;;6.16;96.63
43147;BME280;28752;48.266;7.402;2023-02-03T02:05:16;100950.72;;;6.11;97.08
43147;BME280;28752;48.266;7.402;2023-02-03T02:07:44;100959.50;;;6.10;97.46
43147;BME280;28752;48.266;7.402;2023-02-03T02:10:11;100977.75;;;6.13;96.91
43147;BME280;28752;48.266;7.402;2023-02-03T02:12:36;100980.56;;;6.10;97.42
43147;BME280;28752;48.266;7.402;2023-02-03T02:15:02;100977.69;;;6.14;96.90
43147;BME280;28752;48.266;7.402;2023-02-03T02:34:27;100913.88;;;5.93;96.88
43147;BME280;28752;48.266;7.402;2023-02-03T02:37:23;100914.63;;;5.97;96.72
43147;BME280;28752;48.266;7.402;2023-02-03T02:40:11;100917.44;;;5.92;97.15
43147;BME280;28752;48.266;7.402;2023-02-03T02:42:50;100906.84;;;5.94;97.69
43147;BME280;28752;48.266;7.402;2023-02-03T02:45:49;100887.22;;;6.01;97.14
43147;BME280;28752;48.266;7.402;2023-02-03T02:48:22;100858.00;;;5.90;95.83
43147;BME280;28752;48.266;7.402;2023-02-03T02:50:52;100846.25;;;5.79;96.46
43147;BME280;28752;48.266;7.402;2023-02-03T02:53:21;100846.41;;;5.76;97.14
43147;BME280;28752;48.266;7.402;2023-02-03T02:55:48;100856.16;;;5.74;98.07
43147;BME280;28752;48.266;7.402;2023-02-03T02:58:18;100855.84;;;5.80;97.98
43147;BME280;28752;48.266;7.402;2023-02-03T03:00:44;100856.31;;;5.71;98.47
43147;BME280;28752;48.266;7.402;2023-02-03T03:05:46;100864.53;;;5.47;98.54
43147;BME280;28752;48.266;7.402;2023-02-03T03:08:15;100846.69;;;5.37;98.67
43147;BME280;28752;48.266;7.402;2023-02-03T03:10:43;100845.91;;;5.17;99.57
43147;BME280;28752;48.266;7.402;2023-02-03T03:13:14;100857.75;;;5.26;100.00
43147;BME280;28752;48.266;7.402;2023-02-03T03:15:42;100865.63;;;5.26;100.00
43147;BME280;28752;48.266;7.402;2023-02-03T03:18:17;100870.78;;;5.27;100.00
43147;BME280;28752;48.266;7.402;2023-02-03T03:20:46;100870.56;;;5.32;99.79
43147;BME280;28752;48.266;7.402;2023-02-03T03:23:25;100876.91;;;5.45;99.59
43147;BME280;28752;48.266;7.402;2023-02-03T03:26:29;100876.97;;;5.44;99.69
43147;BME280;28752;48.266;7.402;2023-02-03T03:29:05;100866.31;;;5.47;99.69
43147;BME280;28752;48.266;7.402;2023-02-03T03:31:31;100871.25;;;5.53;99.13
43147;BME280;28752;48.266;7.402;2023-02-03T03:33:57;100856.81;;;5.44;98.90
43147;BME280;28752;48.266;7.402;2023-02-03T03:36:38;100851.16;;;5.52;97.91
43147;BME280;28752;48.266;7.402;2023-02-03T03:42:03;100860.97;;;5.48;98.22
43147;BME280;28752;48.266;7.402;2023-02-03T03:44:36;100864.91;;;5.40;97.69
43147;BME280;28752;48.266;7.402;2023-02-03T03:47:11;100867.69;;;5.37;97.54
43147;BME280;28752;48.266;7.402;2023-02-03T03:49:40;100874.44;;;5.42;97.78
43147;BME280;28752;48.266;7.402;2023-02-03T03:52:08;100876.19;;;5.42;98.19
43147;BME280;28752;48.266;7.402;2023-02-03T03:54:36;100875.19;;;5.44;98.73
43147;BME280;28752;48.266;7.402;2023-02-03T03:57:15;100875.19;;;5.44;98.50
43147;BME280;28752;48.266;7.402;2023-02-03T03:59:44;100867.00;;;5.50;98.07
43147;BME280;28752;48.266;7.402;2023-02-03T04:02:12;100873.00;;;5.52;98.01
43147;BME280;28752;48.266;7.402;2023-02-03T04:04:37;100882.00;;;5.48;97.70
43147;BME280;28752;48.266;7.402;2023-02-03T04:07:03;100874.56;;;5.57;97.42
43147;BME280;28752;48.266;7.402;2023-02-03T04:09:29;100896.44;;;5.57;96.54
43147;BME280;28752;48.266;7.402;2023-02-03T04:11:54;100930.59;;;5.57;96.46
43147;BME280;28752;48.266;7.402;2023-02-03T04:14:27;100941.06;;;5.59;96.38
43147;BME280;28752;48.266;7.402;2023-02-03T04:16:54;100939.41;;;5.56;96.16
43147;BME280;28752;48.266;7.402;2023-02-03T04:19:19;100937.84;;;5.87;94.28
43147;BME280;28752;48.266;7.402;2023-02-03T04:21:45;100945.06;;;6.01;92.16
43147;BME280;28752;48.266;7.402;2023-02-03T04:24:10;100947.44;;;6.23;90.91
43147;BME280;28752;48.266;7.402;2023-02-03T04:26:36;100941.94;;;6.28;90.73
43147;BME280;28752;48.266;7.402;2023-02-03T04:29:02;100950.16;;;6.21;90.96
43147;BME280;28752;48.266;7.402;2023-02-03T04:31:27;100934.34;;;6.21;91.22
43147;BME280;28752;48.266;7.402;2023-02-03T04:33:53;100937.75;;;6.23;90.83
43147;BME280;28752;48.266;7.402;2023-02-03T04:36:18;100935.19;;;6.22;91.61
43147;BME280;28752;48.266;7.402;2023-02-03T04:38:44;100931.25;;;6.31;92.30
43147;BME280;28752;48.266;7.402;2023-02-03T04:41:09;100923.44;;;6.29;91.93
43147;BME280;28752;48.266;7.402;2023-02-03T04:43:34;100912.81;;;6.31;91.59
43147;BME280;28752;48.266;7.402;2023-02-03T04:46:00;100877.84;;;6.13;91.79
43147;BME280;28752;48.266;7.402;2023-02-03T04:48:26;100920.88;;;6.28;91.94
43147;BME280;28752;48.266;7.402;2023-02-03T04:50:52;100894.13;;;6.19;92.46
43147;BME280;28752;48.266;7.402;2023-02-03T04:53:17;100911.19;;;6.28;91.71
43147;BME280;28752;48.266;7.402;2023-02-03T04:55:46;100899.84;;;6.28;91.12
43147;BME280;28752;48.266;7.402;2023-02-03T04:58:12;100904.13;;;6.13;91.86
43147;BME280;28752;48.266;7.402;2023-02-03T05:00:38;100900.66;;;6.12;91.87
43147;BME280;28752;48.266;7.402;2023-02-03T05:03:03;100899.72;;;5.96;92.44
43147;BME280;28752;48.266;7.402;2023-02-03T05:05:28;100902.31;;;5.97;92.74
43147;BME280;28752;48.266;7.402;2023-02-03T05:07:54;100900.22;;;5.86;92.63
43147;BME280;28752;48.266;7.402;2023-02-03T05:10:19;100897.09;;;5.78;92.90
43147;BME280;28752;48.266;7.402;2023-02-03T05:12:45;100894.56;;;5.77;93.48
43147;BME280;28752;48.266;7.402;2023-02-03T05:15:10;100901.28;;;5.82;93.37
43147;BME280;28752;48.266;7.402;2023-02-03T05:17:36;100900.06;;;5.72;93.39
43147;BME280;28752;48.266;7.402;2023-02-03T05:20:04;100899.22;;;5.72;93.25
43147;BME280;28752;48.266;7.402;2023-02-03T05:22:30;100891.25;;;5.73;93.32
43147;BME280;28752;48.266;7.402;2023-02-03T05:24:55;100889.47;;;5.74;92.94
43147;BME280;28752;48.266;7.402;2023-02-03T05:27:20;100886.91;;;5.72;93.47
43147;BME280;28752;48.266;7.402;2023-02-03T05:29:46;100878.72;;;5.78;93.03
43147;BME280;28752;48.266;7.402;2023-02-03T05:32:11;100880.66;;;5.75;93.09
43147;BME280;28752;48.266;7.402;2023-02-03T05:34:36;100866.22;;;5.66;93.23
43147;BME280;28752;48.266;7.402;2023-02-03T05:37:02;100881.59;;;5.74;93.43
43147;BME280;28752;48.266;7.402;2023-02-03T05:39:28;100894.28;;;5.65;92.90
43147;BME280;28752;48.266;7.402;2023-02-03T05:41:53;100889.69;;;5.69;93.20
43147;BME280;28752;48.266;7.402;2023-02-03T05:44:20;100904.56;;;5.70;93.74
43147;BME280;28752;48.266;7.402;2023-02-03T05:46:46;100914.06;;;5.73;94.35
43147;BME280;28752;48.266;7.402;2023-02-03T05:49:11;100919.72;;;5.65;94.28
43147;BME280;28752;48.266;7.402;2023-02-03T05:51:37;100917.31;;;5.78;93.56
43147;BME280;28752;48.266;7.402;2023-02-03T05:54:03;100915.50;;;5.78;93.86
43147;BME280;28752;48.266;7.402;2023-02-03T05:56:28;100916.53;;;5.76;94.02
43147;BME280;28752;48.266;7.402;2023-02-03T05:58:54;100918.06;;;5.80;94.29
43147;BME280;28752;48.266;7.402;2023-02-03T06:01:19;100917.97;;;5.81;94.57
43147;BME280;28752;48.266;7.402;2023-02-03T06:03:45;100903.25;;;5.79;94.31
43147;BME280;28752;48.266;7.402;2023-02-03T06:06:11;100911.44;;;5.73;94.42
43147;BME280;28752;48.266;7.402;2023-02-03T06:08:36;100912.44;;;5.70;94.78
43147;BME280;28752;48.266;7.402;2023-02-03T06:11:02;100914.00;;;5.74;94.15
43147;BME280;28752;48.266;7.402;2023-02-03T06:13:27;100931.00;;;5.67;94.77
43147;BME280;28752;48.266;7.402;2023-02-03T06:15:53;100929.75;;;5.74;93.34
43147;BME280;28752;48.266;7.402;2023-02-03T06:18:19;100935.56;;;5.63;93.04
43147;BME280;28752;48.266;7.402;2023-02-03T06:20:44;100947.75;;;5.64;93.25
43147;BME280;28752;48.266;7.402;2023-02-03T06:23:10;100937.03;;;5.51;93.04
43147;BME280;28752;48.266;7.402;2023-02-03T06:25:35;100941.50;;;5.67;92.07
43147;BME280;28752;48.266;7.402;2023-02-03T06:28:01;100954.38;;;5.54;92.65
43147;BME280;28752;48.266;7.402;2023-02-03T06:30:26;100950.47;;;5.63;92.11
43147;BME280;28752;48.266;7.402;2023-02-03T06:32:51;100936.75;;;5.39;92.58
43147;BME280;28752;48.266;7.402;2023-02-03T06:35:17;100973.31;;;5.43;93.21
43147;BME280;28752;48.266;7.402;2023-02-03T06:37:42;100978.09;;;5.52;93.40
43147;BME280;28752;48.266;7.402;2023-02-03T06:40:09;100983.59;;;5.48;93.78
43147;BME280;28752;48.266;7.402;2023-02-03T06:42:35;100991.63;;;5.45;93.85
43147;BME280;28752;48.266;7.402;2023-02-03T06:45:00;100963.97;;;5.38;93.89
43147;BME280;28752;48.266;7.402;2023-02-03T06:47:25;100968.22;;;5.40;94.07
43147;BME280;28752;48.266;7.402;2023-02-03T06:49:51;100951.53;;;5.41;93.69
43147;BME280;28752;48.266;7.402;2023-02-03T06:52:16;100947.34;;;5.37;94.17
43147;BME280;28752;48.266;7.402;2023-02-03T06:54:42;100947.84;;;5.45;94.02
43147;BME280;28752;48.266;7.402;2023-02-03T06:57:07;100941.25;;;5.37;93.59
43147;BME280;28752;48.266;7.402;2023-02-03T06:59:33;100938.84;;;5.32;94.22
43147;BME280;28752;48.266;7.402;2023-02-03T07:01:58;100941.63;;;5.29;94.46
43147;BME280;28752;48.266;7.402;2023-02-03T07:04:23;100923.84;;;5.16;94.99
43147;BME280;28752;48.266;7.402;2023-02-03T07:06:49;100927.28;;;5.36;94.41
43147;BME280;28752;48.266;7.402;2023-02-03T07:09:14;100953.25;;;5.42;94.78
43147;BME280;28752;48.266;7.402;2023-02-03T07:11:40;100948.97;;;5.40;95.25
43147;BME280;28752;48.266;7.402;2023-02-03T07:14:05;100936.00;;;5.54;95.26
43147;BME280;28752;48.266;7.402;2023-02-03T07:16:30;100936.47;;;5.62;95.21
43147;BME280;28752;48.266;7.402;2023-02-03T07:18:58;100918.28;;;5.75;94.38
43147;BME280;28752;48.266;7.402;2023-02-03T07:21:24;100928.25;;;5.86;93.54
43147;BME280;28752;48.266;7.402;2023-02-03T07:23:49;100913.66;;;5.98;93.16
43147;BME280;28752;48.266;7.402;2023-02-03T07:26:16;100917.59;;;6.07;91.64
43147;BME280;28752;48.266;7.402;2023-02-03T07:28:41;100877.66;;;6.00;91.57
43147;BME280;28752;48.266;7.402;2023-02-03T07:31:07;100861.97;;;6.14;91.17
43147;BME280;28752;48.266;7.402;2023-02-03T07:33:35;100860.38;;;6.28;90.06
43147;BME280;28752;48.266;7.402;2023-02-03T07:36:01;100841.63;;;6.34;89.20
43147;BME280;28752;48.266;7.402;2023-02-03T07:38:28;100873.88;;;6.37;88.64
43147;BME280;28752;48.266;7.402;2023-02-03T07:40:53;100900.88;;;6.41;88.54
43147;BME280;28752;48.266;7.402;2023-02-03T07:43:19;100919.63;;;6.51;88.16
43147;BME280;28752;48.266;7.402;2023-02-03T07:45:44;100909.44;;;6.45;87.66
43147;BME280;28752;48.266;7.402;2023-02-03T07:48:10;100936.97;;;6.55;87.89
43147;BME280;28752;48.266;7.402;2023-02-03T07:50:36;100933.50;;;6.54;88.02
43147;BME280;28752;48.266;7.402;2023-02-03T07:53:02;100940.78;;;6.49;89.37
43147;BME280;28752;48.266;7.402;2023-02-03T07:55:28;100933.72;;;6.50;89.67
43147;BME280;28752;48.266;7.402;2023-02-03T07:57:57;100898.94;;;6.61;89.48
43147;BME280;28752;48.266;7.402;2023-02-03T08:00:23;100891.63;;;6.50;89.34
43147;BME280;28752;48.266;7.402;2023-02-03T08:02:49;100906.16;;;6.57;89.59
43147;BME280;28752;48.266;7.402;2023-02-03T08:05:15;100920.34;;;6.54;90.04
43147;BME280;28752;48.266;7.402;2023-02-03T08:07:41;100925.78;;;6.51;89.73
43147;BME280;28752;48.266;7.402;2023-02-03T08:10:07;100911.50;;;6.39;89.97
43147;BME280;28752;48.266;7.402;2023-02-03T08:12:33;100927.78;;;6.46;89.34
43147;BME280;28752;48.266;7.402;2023-02-03T08:14:59;100926.66;;;6.34;90.03
43147;BME280;28752;48.266;7.402;2023-02-03T08:17:24;100933.59;;;6.53;89.24
43147;BME280;28752;48.266;7.402;2023-02-03T08:19:50;100930.69;;;6.57;88.81
43147;BME280;28752;48.266;7.402;2023-02-03T08:22:15;100930.50;;;6.45;88.30
43147;BME280;28752;48.266;7.402;2023-02-03T08:24:45;100960.25;;;6.63;88.45
43147;BME280;28752;48.266;7.402;2023-02-03T08:27:15;100926.69;;;6.50;88.60
43147;BME280;28752;48.266;7.402;2023-02-03T08:29:41;100945.91;;;6.68;88.63
43147;BME280;28752;48.266;7.402;2023-02-03T08:32:11;100948.00;;;6.62;88.85
43147;BME280;28752;48.266;7.402;2023-02-03T08:34:38;100937.22;;;6.66;87.99
43147;BME280;28752;48.266;7.402;2023-02-03T08:37:04;100929.78;;;6.74;88.06
43147;BME280;28752;48.266;7.402;2023-02-03T08:39:30;100926.69;;;6.66;87.36
43147;BME280;28752;48.266;7.402;2023-02-03T08:41:55;100924.84;;;6.68;88.08
43147;BME280;28752;48.266;7.402;2023-02-03T08:44:21;100928.72;;;6.77;88.11
43147;BME280;28752;48.266;7.402;2023-02-03T08:46:51;100928.31;;;6.69;88.32
43147;BME280;28752;48.266;7.402;2023-02-03T08:49:16;100944.53;;;6.77;88.25
43147;BME280;28752;48.266;7.402;2023-02-03T08:51:43;100933.53;;;6.86;87.67
43147;BME280;28752;48.266;7.402;2023-02-03T08:54:08;100948.81;;;6.96;87.39
43147;BME280;28752;48.266;7.402;2023-02-03T08:56:34;100945.22;;;6.97;87.62
43147;BME280;28752;48.266;7.402;2023-02-03T08:58:59;100970.94;;;7.07;85.15
43147;BME280;28752;48.266;7.402;2023-02-03T09:01:25;100973.31;;;7.12;85.04
43147;BME280;28752;48.266;7.402;2023-02-03T09:03:50;100990.50;;;7.03;86.21
43147;BME280;28752;48.266;7.402;2023-02-03T09:06:16;100958.88;;;7.19;83.63
43147;BME280;28752;48.266;7.402;2023-02-03T09:08:42;100991.31;;;7.52;82.86
43147;BME280;28752;48.266;7.402;2023-02-03T09:11:09;101005.38;;;7.67;81.63
43147;BME280;28752;48.266;7.402;2023-02-03T09:13:35;100997.72;;;7.78;81.45
43147;BME280;28752;48.266;7.402;2023-02-03T09:16:00;101003.00;;;7.78;81.65
43147;BME280;28752;48.266;7.402;2023-02-03T09:18:26;101015.91;;;7.82;81.99
43147;BME280;28752;48.266;7.402;2023-02-03T09:20:51;101012.78;;;7.76;82.58
43147;BME280;28752;48.266;7.402;2023-02-03T09:23:16;101006.81;;;8.03;80.14
43147;BME280;28752;48.266;7.402;2023-02-03T09:25:42;101000.94;;;8.28;80.67
43147;BME280;28752;48.266;7.402;2023-02-03T09:28:07;100985.44;;;8.52;80.89
43147;BME280;28752;48.266;7.402;2023-02-03T09:30:32;100976.19;;;8.45;80.13
43147;BME280;28752;48.266;7.402;2023-02-03T09:32:58;100992.28;;;8.54;79.31
43147;BME280;28752;48.266;7.402;2023-02-03T09:35:23;100999.84;;;8.61;79.75
43147;BME280;28752;48.266;7.402;2023-02-03T09:37:51;101001.63;;;8.60;79.21
43147;BME280;28752;48.266;7.402;2023-02-03T09:40:20;101013.69;;;8.50;80.26
43147;BME280;28752;48.266;7.402;2023-02-03T09:42:52;101015.47;;;8.64;79.11
43147;BME280;28752;48.266;7.402;2023-02-03T09:45:28;101010.69;;;8.70;79.96
43147;BME280;28752;48.266;7.402;2023-02-03T09:48:02;101011.72;;;8.68;80.33
43147;BME280;28752;48.266;7.402;2023-02-03T09:50:32;101021.91;;;8.60;79.45
43147;BME280;28752;48.266;7.402;2023-02-03T09:53:04;101016.91;;;8.55;80.39
43147;BME280;28752;48.266;7.402;2023-02-03T09:55:38;101015.78;;;8.45;80.50
43147;BME280;28752;48.266;7.402;2023-02-03T09:58:09;101004.91;;;8.64;80.90
43147;BME280;28752;48.266;7.402;2023-02-03T10:09:02;101011.28;;;9.17;80.70
43147;BME280;28752;48.266;7.402;2023-02-03T10:19:22;101001.75;;;9.15;74.68
43147;BME280;28752;48.266;7.402;2023-02-03T10:21:57;101001.56;;;9.18;75.12
43147;BME280;28752;48.266;7.402;2023-02-03T10:24:34;101005.13;;;9.17;74.78
43147;BME280;28752;48.266;7.402;2023-02-03T10:27:03;101007.59;;;9.20;75.37
43147;BME280;28752;48.266;7.402;2023-02-03T10:29:40;101001.47;;;9.19;75.01
43147;BME280;28752;48.266;7.402;2023-02-03T10:32:10;100982.63;;;9.11;74.01
43147;BME280;28752;48.266;7.402;2023-02-03T10:34:37;100998.97;;;9.03;73.84
43147;BME280;28752;48.266;7.402;2023-02-03T10:39:46;101006.88;;;9.03;73.54
43147;BME280;28752;48.266;7.402;2023-02-03T10:42:13;100999.41;;;8.96;72.95
43147;BME280;28752;48.266;7.402;2023-02-03T10:44:41;100995.00;;;8.96;73.12
43147;BME280;28752;48.266;7.402;2023-02-03T10:47:18;100967.28;;;8.89;74.81
43147;BME280;28752;48.266;7.402;2023-02-03T10:49:47;100982.72;;;9.10;75.53
43147;BME280;28752;48.266;7.402;2023-02-03T10:52:25;100979.09;;;9.11;71.70
43147;BME280;28752;48.266;7.402;2023-02-03T10:54:51;100994.28;;;9.21;71.70
43147;BME280;28752;48.266;7.402;2023-02-03T10:57:17;100968.75;;;9.35;71.86
43147;BME280;28752;48.266;7.402;2023-02-03T10:59:45;100985.31;;;9.51;69.07
43147;BME280;28752;48.266;7.402;2023-02-03T11:02:27;100966.66;;;9.40;69.20
43147;BME280;28752;48.266;7.402;2023-02-03T11:05:18;100948.66;;;9.05;68.84
43147;BME280;28752;48.266;7.402;2023-02-03T11:07:45;100929.06;;;8.95;70.46
43147;BME280;28752;48.266;7.402;2023-02-03T11:10:39;100919.59;;;9.05;70.04
43147;BME280;28752;48.266;7.402;2023-02-03T11:18:44;100928.59;;;9.15;70.04
43147;BME280;28752;48.266;7.402;2023-02-03T11:26:20;100945.09;;;9.99;67.83
43147;BME280;28752;48.266;7.402;2023-02-03T11:28:49;100938.84;;;10.00;66.61
43147;BME280;28752;48.266;7.402;2023-02-03T11:31:18;100943.19;;;10.01;65.47
43147;BME280;28752;48.266;7.402;2023-02-03T11:33:51;100937.88;;;9.88;65.25
43147;BME280;28752;48.266;7.402;2023-02-03T11:36:18;100960.53;;;9.92;65.92
43147;BME280;28752;48.266;7.402;2023-02-03T11:38:44;100943.34;;;9.72;65.29
43147;BME280;28752;48.266;7.402;2023-02-03T11:41:19;100946.00;;;9.72;66.33
43147;BME280;28752;48.266;7.402;2023-02-03T11:43:46;100930.44;;;9.81;64.56
43147;BME280;28752;48.266;7.402;2023-02-03T11:46:13;100949.63;;;9.97;66.45
43147;BME280;28752;48.266;7.402;2023-02-03T11:48:55;100921.38;;;9.72;64.33
43147;BME280;28752;48.266;7.402;2023-02-03T11:51:56;100930.47;;;9.93;65.53
43147;BME280;28752;48.266;7.402;2023-02-03T11:54:45;100915.03;;;10.13;66.39
43147;BME280;28752;48.266;7.402;2023-02-03T11:57:30;100898.91;;;10.29;65.29
43147;BME280;28752;48.266;7.402;2023-02-03T12:05:54;100883.28;;;10.13;64.65
43147;BME280;28752;48.266;7.402;2023-02-03T12:11:10;100864.00;;;9.85;64.97
43147;BME280;28752;48.266;7.402;2023-02-03T12:19:13;100862.66;;;9.80;64.84
43147;BME280;28752;48.266;7.402;2023-02-03T12:21:50;100880.31;;;9.66;65.70
43147;BME280;28752;48.266;7.402;2023-02-03T12:24:28;100890.03;;;9.66;65.66
43147;BME280;28752;48.266;7.402;2023-02-03T12:29:39;100895.09;;;9.56;67.17
43147;BME280;28752;48.266;7.402;2023-02-03T12:41:20;100890.78;;;9.68;67.42
43147;BME280;28752;48.266;7.402;2023-02-03T12:46:02;100896.06;;;9.81;66.84
43147;BME280;28752;48.266;7.402;2023-02-03T12:48:40;100867.50;;;9.73;66.30
43147;BME280;28752;48.266;7.402;2023-02-03T12:51:12;100884.22;;;9.86;67.11
43147;BME280;28752;48.266;7.402;2023-02-03T12:53:46;100868.25;;;9.88;66.19
43147;BME280;28752;48.266;7.402;2023-02-03T12:56:26;100858.19;;;9.80;66.59
43147;BME280;28752;48.266;7.402;2023-02-03T12:59:00;100867.50;;;9.86;66.96
43147;BME280;28752;48.266;7.402;2023-02-03T13:01:49;100870.59;;;9.80;66.92
43147;BME280;28752;48.266;7.402;2023-02-03T13:09:49;100872.91;;;9.84;67.39
43147;BME280;28752;48.266;7.402;2023-02-03T13:12:41;100850.88;;;9.84;67.26
43147;BME280;28752;48.266;7.402;2023-02-03T13:15:30;100867.09;;;9.92;67.35
43147;BME280;28752;48.266;7.402;2023-02-03T13:18:13;100850.16;;;9.94;65.82
43147;BME280;28752;48.266;7.402;2023-02-03T13:20:44;100841.06;;;9.86;66.16
43147;BME280;28752;48.266;7.402;2023-02-03T13:23:12;100853.44;;;9.72;66.66
43147;BME280;28752;48.266;7.402;2023-02-03T13:34:10;100865.94;;;9.70;66.48
43147;BME280;28752;48.266;7.402;2023-02-03T13:44:52;100863.56;;;9.53;67.62
43147;BME280;28752;48.266;7.402;2023-02-03T13:47:28;100856.88;;;9.34;68.50
43147;BME280;28752;48.266;7.402;2023-02-03T13:49:57;100860.94;;;9.53;68.07
43147;BME280;28752;48.266;7.402;2023-02-03T13:52:36;100872.03;;;9.58;67.63
43147;BME280;28752;48.266;7.402;2023-02-03T13:55:03;100863.56;;;9.53;67.65
43147;BME280;28752;48.266;7.402;2023-02-03T13:57:37;100876.38;;;9.46;68.33
43147;BME280;28752;48.266;7.402;2023-02-03T14:03:41;100880.06;;;9.56;67.91
43147;BME280;28752;48.266;7.402;2023-02-03T14:11:45;100890.31;;;9.35;68.90
43147;BME280;28752;48.266;7.402;2023-02-03T14:16:51;100900.16;;;9.59;68.94
43147;BME280;28752;48.266;7.402;2023-02-03T14:22:02;100889.69;;;9.57;68.35
43147;BME280;28752;48.266;7.402;2023-02-03T14:24:34;100873.22;;;9.54;68.64
43147;BME280;28752;48.266;7.402;2023-02-03T14:27:04;100863.56;;;9.40;68.97
43147;BME280;28752;48.266;7.402;2023-02-03T14:29:33;100841.13;;;9.33;69.41
43147;BME280;28752;48.266;7.402;2023-02-03T14:34:34;100856.31;;;9.29;69.75
43147;BME280;28752;48.266;7.402;2023-02-03T14:42:59;100834.53;;;9.13;70.58
43147;BME280;28752;48.266;7.402;2023-02-03T14:45:54;100832.72;;;9.00;71.26
43147;BME280;28752;48.266;7.402;2023-02-03T14:48:49;100807.03;;;9.02;71.62
43147;BME280;28752;48.266;7.402;2023-02-03T14:56:45;100834.47;;;8.87;71.66
43147;BME280;28752;48.266;7.402;2023-02-03T14:59:37;100826.53;;;8.87;71.83
43147;BME280;28752;48.266;7.402;2023-02-03T15:04:30;100793.13;;;8.86;71.21
43147;BME280;28752;48.266;7.402;2023-02-03T15:06:55;100817.66;;;8.88;71.66
43147;BME280;28752;48.266;7.402;2023-02-03T15:09:31;100822.41;;;8.96;71.91
43147;BME280;28752;48.266;7.402;2023-02-03T15:11:59;100825.16;;;8.94;72.39
43147;BME280;28752;48.266;7.402;2023-02-03T15:14:26;100809.31;;;8.94;72.49
43147;BME280;28752;48.266;7.402;2023-02-03T15:16:54;100801.81;;;8.88;71.90
43147;BME280;28752;48.266;7.402;2023-02-03T15:19:26;100813.13;;;8.90;71.97
43147;BME280;28752;48.266;7.402;2023-02-03T15:21:52;100814.69;;;8.93;71.27
43147;BME280;28752;48.266;7.402;2023-02-03T15:24:19;100826.97;;;8.94;72.20
43147;BME280;28752;48.266;7.402;2023-02-03T15:26:50;100845.66;;;8.91;70.70